createdAt,value
2018-12-24T00:03:22.609Z,0.40
2018-12-24T00:06:10.951Z,0.60
2018-12-24T00:08:59.308Z,0.50
2018-12-24T00:11:47.745Z,0.50
2018-12-24T00:14:35.644Z,0.50
2018-12-24T00:20:28.695Z,0.50
2018-12-24T00:23:10.164Z,0.40
2018-12-24T00:25:50.975Z,0.70
2018-12-24T00:28:32.397Z,0.40
2018-12-24T00:33:56.217Z,0.47
2018-12-24T00:39:19.879Z,0.50
2018-12-24T00:41:49.042Z,0.50
2018-12-24T00:44:37.640Z,0.50
2018-12-24T00:47:25.876Z,0.50
2018-12-24T00:50:14.446Z,0.50
2018-12-24T00:53:02.847Z,0.40
2018-12-24T00:55:51.107Z,0.50
2018-12-24T00:58:39.420Z,0.40
2018-12-24T01:01:27.703Z,0.50
2018-12-24T01:04:15.657Z,0.50
2018-12-24T01:07:04.028Z,0.50
2018-12-24T01:09:33.172Z,0.40
2018-12-24T01:12:02.296Z,0.40
2018-12-24T01:14:50.748Z,0.50
2018-12-24T01:17:32.244Z,0.40
2018-12-24T01:20:13.203Z,0.40
2018-12-24T01:25:36.589Z,0.40
2018-12-24T01:31:29.691Z,0.40
2018-12-24T01:46:22.293Z,0.50
2018-12-24T01:58:13.487Z,0.40
2018-12-24T02:00:54.415Z,0.40
2018-12-24T02:03:23.851Z,0.70
2018-12-24T02:06:12.458Z,0.50
2018-12-24T02:09:01.039Z,0.90
2018-12-24T02:11:49.380Z,0.40
2018-12-24T02:14:37.809Z,0.40
2018-12-24T02:17:18.716Z,0.40
2018-12-24T02:19:59.475Z,0.50
2018-12-24T02:25:30.421Z,0.40
2018-12-24T02:28:18.358Z,0.50
2018-12-24T02:31:07.114Z,0.47
2018-12-24T02:33:55.634Z,0.43
2018-12-24T02:36:44.426Z,0.50
2018-12-24T02:39:32.881Z,0.63
2018-12-24T02:42:21.587Z,0.40
2018-12-24T02:45:09.855Z,0.40
2018-12-24T02:47:58.578Z,0.40
2018-12-24T02:50:47.055Z,0.50
2018-12-24T02:53:16.353Z,0.40
2018-12-24T02:56:04.743Z,0.50
2018-12-24T02:58:52.619Z,0.50
2018-12-24T03:01:40.732Z,0.40
2018-12-24T03:04:28.731Z,0.50
2018-12-24T03:07:16.984Z,0.50
2018-12-24T03:10:05.578Z,0.50
2018-12-24T03:15:48.114Z,0.40
2018-12-24T03:18:36.427Z,0.40
2018-12-24T03:24:32.231Z,0.40
2018-12-24T03:27:21.024Z,0.50
2018-12-24T03:30:09.805Z,0.50
2018-12-24T03:32:58.543Z,0.50
2018-12-24T03:35:47.153Z,0.60
2018-12-24T03:38:35.755Z,0.43
2018-12-24T03:41:23.874Z,0.63
2018-12-24T03:44:11.906Z,0.40
2018-12-24T03:47:00.604Z,0.40
2018-12-24T03:49:30.423Z,0.50
2018-12-24T03:52:18.848Z,0.60
2018-12-24T03:55:07.414Z,0.50
2018-12-24T03:57:55.478Z,0.50
2018-12-24T04:00:44.205Z,0.50
2018-12-24T04:03:32.301Z,0.50
2018-12-24T04:06:21.158Z,0.50
2018-12-24T04:09:09.263Z,0.40
2018-12-24T04:11:58.034Z,0.50
2018-12-24T04:14:46.698Z,0.40
2018-12-24T04:20:26.217Z,0.50
2018-12-24T04:23:07.237Z,0.60
2018-12-24T04:25:48.070Z,0.40
2018-12-24T04:28:28.896Z,2.10
2018-12-24T04:31:10.331Z,0.60
2018-12-24T04:36:50.254Z,0.40
2018-12-24T04:45:29.057Z,0.50
2018-12-24T04:47:58.595Z,0.50
2018-12-24T04:50:47.068Z,0.50
2018-12-24T04:53:16.312Z,0.40
2018-12-24T04:56:04.957Z,0.53
2018-12-24T04:58:34.632Z,0.50
2018-12-24T05:01:03.665Z,0.60
2018-12-24T05:03:52.140Z,0.50
2018-12-24T05:06:40.648Z,0.50
2018-12-24T05:09:28.604Z,0.50
2018-12-24T05:12:17.421Z,0.50
2018-12-24T05:15:05.558Z,0.60
2018-12-24T05:20:48.010Z,0.60
2018-12-24T05:23:36.067Z,0.60
2018-12-24T05:26:24.093Z,0.63
2018-12-24T05:29:12.543Z,0.50
2018-12-24T05:32:01.131Z,0.60
2018-12-24T05:34:49.781Z,0.90
2018-12-24T05:37:19.637Z,0.63
2018-12-24T05:40:08.369Z,0.50
2018-12-24T05:42:56.872Z,0.50
2018-12-24T05:45:45.524Z,0.53
2018-12-24T05:48:33.385Z,0.50
2018-12-24T05:51:22.064Z,0.40
2018-12-24T05:57:17.619Z,0.53
2018-12-24T06:02:41.435Z,0.53
2018-12-24T06:05:30.144Z,0.50
2018-12-24T06:08:18.148Z,0.50
2018-12-24T06:11:07.088Z,0.60
2018-12-24T06:13:58.090Z,0.60
2018-12-24T06:16:38.163Z,0.50
2018-12-24T06:19:19.138Z,0.50
2018-12-24T06:22:00.227Z,1.13
2018-12-24T06:24:41.188Z,1.70
2018-12-24T06:27:22.290Z,0.97
2018-12-24T06:30:06.920Z,8.23
2018-12-24T06:32:48.000Z,1.70
2018-12-24T06:35:29.183Z,0.87
2018-12-24T06:38:10.990Z,0.50
2018-12-24T06:40:40.396Z,0.87
2018-12-24T06:43:28.833Z,0.60
2018-12-24T06:46:17.789Z,0.57
2018-12-24T06:49:06.489Z,0.60
2018-12-24T06:51:55.132Z,0.70
2018-12-24T06:54:43.703Z,1.03
2018-12-24T06:57:32.526Z,0.50
2018-12-24T07:00:01.960Z,0.70
2018-12-24T07:02:50.719Z,0.67
2018-12-24T07:05:39.478Z,0.50
2018-12-24T07:08:27.582Z,0.60
2018-12-24T07:11:16.386Z,0.70
2018-12-24T07:14:04.927Z,0.90
2018-12-24T07:16:45.794Z,0.50
2018-12-24T07:19:26.728Z,0.60
2018-12-24T07:22:08.398Z,0.60
2018-12-24T07:28:01.684Z,0.53
2018-12-24T07:30:43.048Z,0.50
2018-12-24T07:36:22.837Z,0.50
2018-12-24T07:39:04.024Z,0.60
2018-12-24T07:41:44.829Z,0.80
2018-12-24T07:44:25.589Z,1.07
2018-12-24T07:46:55.043Z,0.87
2018-12-24T07:49:42.968Z,0.60
2018-12-24T07:52:30.891Z,0.50
2018-12-24T07:55:19.204Z,0.70
2018-12-24T07:58:07.757Z,1.00
2018-12-24T08:00:56.287Z,10.10
2018-12-24T08:03:44.845Z,4.87
2018-12-24T08:06:33.340Z,6.20
2018-12-24T08:09:02.455Z,2.70
2018-12-24T08:11:50.964Z,1.13
2018-12-24T08:14:39.443Z,0.70
2018-12-24T08:17:20.334Z,0.77
2018-12-24T08:20:01.837Z,1.07
2018-12-24T08:49:39.703Z,1.50
2018-12-24T08:52:20.741Z,1.60
2018-12-24T08:55:01.450Z,1.30
2018-12-24T08:57:30.960Z,0.80
2018-12-24T09:00:18.911Z,1.00
2018-12-24T09:03:06.887Z,1.43
2018-12-24T09:05:54.828Z,0.93
2018-12-24T09:08:43.328Z,1.20
2018-12-24T09:11:31.842Z,1.20
2018-12-24T09:14:20.319Z,7.00
2018-12-24T09:17:01.722Z,4.77
2018-12-24T09:19:30.989Z,10.33
2018-12-24T09:22:18.872Z,3.80
2018-12-24T09:25:07.302Z,1.40
2018-12-24T09:27:55.227Z,1.10
2018-12-24T09:30:43.037Z,2.70
2018-12-24T09:33:31.501Z,2.60
2018-12-24T09:36:19.805Z,4.53
2018-12-24T09:39:08.361Z,5.30
2018-12-24T09:41:56.855Z,4.73
2018-12-24T09:44:45.320Z,3.87
2018-12-24T09:47:33.752Z,3.90
2018-12-24T09:50:22.403Z,5.97
2018-12-24T09:53:11.318Z,4.40
2018-12-24T09:55:40.976Z,4.23
2018-12-24T09:58:29.694Z,2.33
2018-12-24T10:01:17.807Z,2.30
2018-12-24T10:04:10.557Z,2.17
2018-12-24T10:10:04.701Z,2.63
2018-12-24T10:12:52.968Z,2.73
2018-12-24T10:15:41.691Z,2.33
2018-12-24T10:18:23.169Z,3.60
2018-12-24T10:21:04.747Z,3.70
2018-12-24T10:23:45.831Z,4.63
2018-12-24T10:26:27.040Z,2.67
2018-12-24T10:29:07.679Z,3.33
2018-12-24T10:43:43.911Z,2.67
2018-12-24T10:46:24.757Z,3.60
2018-12-24T10:49:05.954Z,5.40
2018-12-24T10:51:47.216Z,2.73
2018-12-24T10:54:28.347Z,1.40
2018-12-24T11:09:07.713Z,1.63
2018-12-24T11:11:48.833Z,1.50
2018-12-24T11:14:29.707Z,1.57
2018-12-24T11:17:10.952Z,2.00
2018-12-24T11:19:53.749Z,2.53
2018-12-24T11:25:32.926Z,1.97
2018-12-24T11:34:11.212Z,20.97
2018-12-24T11:36:52.508Z,15.27
2018-12-24T11:39:22.049Z,5.27
2018-12-24T11:42:10.337Z,2.60
2018-12-24T11:44:58.860Z,3.97
2018-12-24T11:47:46.717Z,2.40
2018-12-24T11:50:35.684Z,2.97
2018-12-24T11:53:23.532Z,1.40
2018-12-24T11:56:12.200Z,4.40
2018-12-24T11:58:41.356Z,5.17
2018-12-24T12:01:29.922Z,4.23
2018-12-24T12:04:18.220Z,2.70
2018-12-24T12:07:06.553Z,4.80
2018-12-24T12:09:54.934Z,3.00
2018-12-24T12:12:42.887Z,6.80
2018-12-24T12:15:31.408Z,5.23
2018-12-24T12:18:12.516Z,3.07
2018-12-24T12:20:53.427Z,4.37
2018-12-24T12:23:34.379Z,3.00
2018-12-24T12:26:49.462Z,3.90
2018-12-24T12:32:28.971Z,5.60
2018-12-24T12:37:59.884Z,4.37
2018-12-24T12:40:47.924Z,5.10
2018-12-24T12:43:17.155Z,3.90
2018-12-24T12:46:05.492Z,3.33
2018-12-24T12:48:53.374Z,2.47
2018-12-24T12:51:41.812Z,2.83
2018-12-24T12:54:30.271Z,4.67
2018-12-24T12:57:18.409Z,2.80
2018-12-24T13:00:06.091Z,3.27
2018-12-24T13:02:35.045Z,3.67
2018-12-24T13:05:23.472Z,2.87
2018-12-24T13:08:11.871Z,2.90
2018-12-24T13:11:00.004Z,3.03
2018-12-24T13:13:47.988Z,3.50
2018-12-24T13:16:28.975Z,5.47
2018-12-24T13:19:09.493Z,3.00
2018-12-24T13:21:50.057Z,3.80
2018-12-24T13:30:29.884Z,3.27
2018-12-24T13:33:10.713Z,3.43
2018-12-24T13:35:51.503Z,3.27
2018-12-24T13:38:33.018Z,3.40
2018-12-24T13:41:13.779Z,3.10
2018-12-24T13:43:54.555Z,3.57
2018-12-24T13:46:35.447Z,3.37
2018-12-24T13:52:16.337Z,3.70
2018-12-24T14:34:06.425Z,1.27
2018-12-24T14:39:37.864Z,2.93
2018-12-24T14:42:07.066Z,2.53
2018-12-24T14:44:55.636Z,3.07
2018-12-24T14:47:44.959Z,7.00
2018-12-24T14:50:34.027Z,4.30
2018-12-24T14:53:22.658Z,13.50
2018-12-24T14:56:11.380Z,9.17
2018-12-24T14:58:59.245Z,3.93
2018-12-24T15:01:47.472Z,3.00
2018-12-24T15:04:35.859Z,6.33
2018-12-24T15:07:23.813Z,4.30
2018-12-24T15:09:53.285Z,4.23
2018-12-24T15:12:41.475Z,5.47
2018-12-24T15:15:10.781Z,10.53
2018-12-24T15:27:06.795Z,7.70
2018-12-24T15:32:49.442Z,4.30
2018-12-24T15:35:30.764Z,3.90
2018-12-24T15:38:11.760Z,6.23
2018-12-24T15:40:53.250Z,2.40
2018-12-24T15:43:34.149Z,2.17
2018-12-24T15:49:14.199Z,2.07
2018-12-24T16:00:53.969Z,5.40
2018-12-24T16:03:36.911Z,15.67
2018-12-24T16:06:17.242Z,6.60
2018-12-24T16:08:58.726Z,5.23
2018-12-24T16:11:40.242Z,7.80
2018-12-24T16:26:37.658Z,5.90
2018-12-24T16:32:31.394Z,10.23
2018-12-24T16:35:00.253Z,10.50
2018-12-24T16:37:29.708Z,7.10
2018-12-24T16:40:17.473Z,7.10
2018-12-24T16:43:05.951Z,8.60
2018-12-24T16:45:54.537Z,6.60
2018-12-24T16:48:42.749Z,5.03
2018-12-24T16:51:31.119Z,14.27
2018-12-24T16:54:18.977Z,10.37
2018-12-24T16:57:06.997Z,5.67
2018-12-24T16:59:58.347Z,3.90
2018-12-24T17:02:46.801Z,3.23
2018-12-24T17:05:35.729Z,2.57
2018-12-24T17:08:23.678Z,2.40
2018-12-24T17:11:11.527Z,2.90
2018-12-24T17:14:00.043Z,3.60
2018-12-24T17:16:29.430Z,5.20
2018-12-24T17:19:18.040Z,6.53
2018-12-24T17:22:06.200Z,6.80
2018-12-24T17:24:54.671Z,8.60
2018-12-24T17:27:43.439Z,8.50
2018-12-24T17:30:31.908Z,5.33
2018-12-24T17:33:20.230Z,7.07
2018-12-24T17:36:08.742Z,7.30
2018-12-24T17:38:56.701Z,4.57
2018-12-24T17:41:44.657Z,6.10
2018-12-24T17:44:32.637Z,6.57
2018-12-24T17:47:02.060Z,7.63
2018-12-24T17:49:50.489Z,7.63
2018-12-24T17:52:38.611Z,12.10
2018-12-24T17:55:27.347Z,13.10
2018-12-24T17:57:56.527Z,16.50
2018-12-24T18:00:45.115Z,10.30
2018-12-24T18:03:14.552Z,6.90
2018-12-24T18:06:03.219Z,3.97
2018-12-24T18:08:50.990Z,5.23
2018-12-24T18:11:39.398Z,5.07
2018-12-24T18:14:27.570Z,6.70
2018-12-24T18:17:09.090Z,11.13
2018-12-24T18:19:38.484Z,18.17
2018-12-24T18:22:26.777Z,7.03
2018-12-24T18:25:15.490Z,19.37
2018-12-24T18:28:04.237Z,12.67
2018-12-24T18:30:52.721Z,5.97
2018-12-24T18:33:41.095Z,5.43
2018-12-24T18:36:31.482Z,7.13
2018-12-24T18:39:19.413Z,7.43
2018-12-24T18:42:07.036Z,16.37
2018-12-24T18:44:54.785Z,10.30
2018-12-24T18:47:42.850Z,10.63
2018-12-24T18:50:31.302Z,6.70
2018-12-24T18:56:10.175Z,8.03
2018-12-24T18:58:58.860Z,9.30
2018-12-24T19:01:46.955Z,4.93
2018-12-24T19:04:36.113Z,6.87
2018-12-24T19:07:24.319Z,8.27
2018-12-24T19:10:12.739Z,8.50
2018-12-24T19:13:00.939Z,10.20
2018-12-24T19:15:48.897Z,8.80
2018-12-24T19:18:30.540Z,8.63
2018-12-24T19:21:11.473Z,7.90
2018-12-24T19:27:05.556Z,7.10
2018-12-24T19:29:34.883Z,7.30
2018-12-24T19:32:23.293Z,6.70
2018-12-24T19:35:11.642Z,6.70
2018-12-24T19:37:59.667Z,6.80
2018-12-24T19:40:48.106Z,10.70
2018-12-24T19:43:35.860Z,7.60
2018-12-24T19:46:24.150Z,6.90
2018-12-24T19:48:53.093Z,6.00
2018-12-24T19:51:41.089Z,7.90
2018-12-24T19:54:29.740Z,7.57
2018-12-24T19:57:18.229Z,8.03
2018-12-24T20:00:07.117Z,7.40
2018-12-24T20:02:55.685Z,8.63
2018-12-24T20:05:44.268Z,51.70
2018-12-24T20:08:32.192Z,7.67
2018-12-24T20:11:20.340Z,6.27
2018-12-24T20:14:08.596Z,5.80
2018-12-24T20:16:37.882Z,6.77
2018-12-24T20:19:06.859Z,6.80
2018-12-24T20:21:55.356Z,6.60
2018-12-24T20:24:24.578Z,6.50
2018-12-24T20:27:12.509Z,7.00
2018-12-24T20:29:41.711Z,7.03
2018-12-24T20:32:30.092Z,7.30
2018-12-24T20:34:59.546Z,6.40
2018-12-24T20:37:29.301Z,6.33
2018-12-24T20:40:17.512Z,6.00
2018-12-24T20:43:05.401Z,6.33
2018-12-24T20:45:53.570Z,7.70
2018-12-24T20:48:42.231Z,18.00
2018-12-24T20:51:30.795Z,41.27
2018-12-24T20:54:00.287Z,45.43
2018-12-24T20:56:48.761Z,30.50
2018-12-24T20:59:18.172Z,38.10
2018-12-24T21:02:06.584Z,20.17
2018-12-24T21:04:54.324Z,13.30
2018-12-24T21:07:41.920Z,8.53
2018-12-24T21:10:29.920Z,8.53
2018-12-24T21:13:18.172Z,7.80
2018-12-24T21:16:06.668Z,9.10
2018-12-24T21:18:48.199Z,7.40
2018-12-24T21:21:29.730Z,10.00
2018-12-24T21:24:10.461Z,11.40
2018-12-24T21:26:49.962Z,9.00
2018-12-24T21:29:38.271Z,8.27
2018-12-24T21:32:25.965Z,7.50
2018-12-24T21:35:14.313Z,9.00
2018-12-24T21:38:02.441Z,10.00
2018-12-24T21:40:50.431Z,11.97
2018-12-24T21:43:38.733Z,12.70
2018-12-24T21:46:27.657Z,11.30
2018-12-24T21:49:15.618Z,12.57
2018-12-24T21:52:04.103Z,14.10
2018-12-24T21:54:52.253Z,11.93
2018-12-24T21:57:40.846Z,8.60
2018-12-24T22:00:28.780Z,9.50
2018-12-24T22:03:16.927Z,10.53
2018-12-24T22:06:05.140Z,11.73
2018-12-24T22:08:53.454Z,10.27
2018-12-24T22:11:42.108Z,9.33
2018-12-24T22:14:30.583Z,9.37
2018-12-24T22:17:12.228Z,9.93
2018-12-24T22:19:53.397Z,10.00
2018-12-24T22:25:47.185Z,9.20
2018-12-24T22:28:27.965Z,11.40
2018-12-24T22:31:08.683Z,10.40
2018-12-24T22:42:51.962Z,13.73
2018-12-24T22:45:33.502Z,15.30
2018-12-24T22:48:26.909Z,20.67
2018-12-24T22:51:07.883Z,18.50
2018-12-24T22:53:49.438Z,17.63
2018-12-24T22:56:30.586Z,13.57
2018-12-24T22:59:11.964Z,15.20
2018-12-24T23:11:08.054Z,11.47
2018-12-24T23:13:49.874Z,10.60
2018-12-24T23:16:31.168Z,12.00
2018-12-24T23:19:12.799Z,11.20
2018-12-24T23:21:41.789Z,12.00
2018-12-24T23:24:29.770Z,12.63
2018-12-24T23:27:17.957Z,12.97
2018-12-24T23:30:05.570Z,11.67
2018-12-24T23:32:53.925Z,10.37
2018-12-24T23:35:44.658Z,11.17
2018-12-24T23:38:32.633Z,12.60
2018-12-24T23:41:21.223Z,13.03
2018-12-24T23:44:09.704Z,12.50
2018-12-24T23:47:00.627Z,11.70
2018-12-24T23:49:49.121Z,14.67
2018-12-24T23:52:37.597Z,19.10
2018-12-24T23:55:25.984Z,18.70
2018-12-24T23:58:14.428Z,18.10
